sensor_id;sensor_type;location;lat;lon;timestamp;pressure;altitude;pressure_sealevel;temperature;humidity
66857;BME280;53766;50.280;19.160;2023-08-20T00:00:12;98865.97;;;24.83;60.03
66857;BME280;53766;50.280;19.160;2023-08-20T00:03:04;98865.97;;;24.83;60.10
66857;BME280;53766;50.280;19.160;2023-08-20T00:05:35;98867.00;;;24.82;60.21
66857;BME280;53766;50.280;19.160;2023-08-20T00:08:03;98859.97;;;24.81;59.98
66857;BME280;53766;50.280;19.160;2023-08-20T00:10:31;98859.41;;;24.79;60.00
66857;BME280;53766;50.280;19.160;2023-08-20T00:12:59;98860.22;;;24.79;59.97
66857;BME280;53766;50.280;19.160;2023-08-20T00:15:26;98864.78;;;24.79;60.46
66857;BME280;53766;50.280;19.160;2023-08-20T00:17:55;98861.03;;;24.80;60.11
66857;BME280;53766;50.280;19.160;2023-08-20T00:20:23;98863.13;;;24.78;60.28
66857;BME280;53766;50.280;19.160;2023-08-20T00:22:51;98859.84;;;24.76;60.06
66857;BME280;53766;50.280;19.160;2023-08-20T00:25:19;98862.53;;;24.76;60.24
66857;BME280;53766;50.280;19.160;2023-08-20T00:27:46;98854.47;;;24.76;60.41
66857;BME280;53766;50.280;19.160;2023-08-20T00:30:14;98852.03;;;24.74;60.26
66857;BME280;53766;50.280;19.160;2023-08-20T00:32:42;98860.34;;;24.73;60.36
66857;BME280;53766;50.280;19.160;2023-08-20T00:35:09;98853.31;;;24.72;60.27
66857;BME280;53766;50.280;19.160;2023-08-20T00:37:37;98853.56;;;24.70;60.66
66857;BME280;53766;50.280;19.160;2023-08-20T00:40:05;98858.72;;;24.72;60.40
66857;BME280;53766;50.280;19.160;2023-08-20T00:42:33;98848.97;;;24.71;60.65
66857;BME280;53766;50.280;19.160;2023-08-20T00:45:02;98855.44;;;24.70;60.37
66857;BME280;53766;50.280;19.160;2023-08-20T00:47:31;98855.44;;;24.70;60.70
66857;BME280;53766;50.280;19.160;2023-08-20T00:49:59;98852.16;;;24.68;60.54
66857;BME280;53766;50.280;19.160;2023-08-20T00:52:27;98840.53;;;24.67;60.30
66857;BME280;53766;50.280;19.160;2023-08-20T00:54:54;98844.06;;;24.68;60.43
66857;BME280;53766;50.280;19.160;2023-08-20T00:57:22;98843.00;;;24.69;60.64
66857;BME280;53766;50.280;19.160;2023-08-20T00:59:50;98846.75;;;24.68;60.29
66857;BME280;53766;50.280;19.160;2023-08-20T01:02:18;98845.09;;;24.67;60.66
66857;BME280;53766;50.280;19.160;2023-08-20T01:04:47;98839.72;;;24.67;60.74
66857;BME280;53766;50.280;19.160;2023-08-20T01:07:30;98838.91;;;24.66;60.44
66857;BME280;53766;50.280;19.160;2023-08-20T01:13:00;98843.50;;;24.66;60.60
66857;BME280;53766;50.280;19.160;2023-08-20T01:15:27;98840.22;;;24.63;60.54
66857;BME280;53766;50.280;19.160;2023-08-20T01:17:55;98845.59;;;24.63;60.25
66857;BME280;53766;50.280;19.160;2023-08-20T01:20:39;98842.31;;;24.61;60.27
66857;BME280;53766;50.280;19.160;2023-08-20T01:23:40;98842.31;;;24.61;60.40
66857;BME280;53766;50.280;19.160;2023-08-20T01:26:34;98844.19;;;24.61;60.22
66857;BME280;53766;50.280;19.160;2023-08-20T01:29:04;98842.53;;;24.60;60.47
66857;BME280;53766;50.280;19.160;2023-08-20T01:31:33;98846.03;;;24.60;60.46
66857;BME280;53766;50.280;19.160;2023-08-20T01:34:01;98843.59;;;24.59;60.06
66857;BME280;53766;50.280;19.160;2023-08-20T01:36:29;98844.41;;;24.59;60.28
66857;BME280;53766;50.280;19.160;2023-08-20T01:38:57;98847.34;;;24.58;60.13
66857;BME280;53766;50.280;19.160;2023-08-20T01:41:24;98845.72;;;24.57;60.48
66857;BME280;53766;50.280;19.160;2023-08-20T01:43:52;98842.22;;;24.56;60.11
66857;BME280;53766;50.280;19.160;2023-08-20T01:46:19;98846.53;;;24.57;60.34
66857;BME280;53766;50.280;19.160;2023-08-20T01:48:47;98848.63;;;24.55;60.23
66857;BME280;53766;50.280;19.160;2023-08-20T01:51:14;98847.00;;;24.54;60.45
66857;BME280;53766;50.280;19.160;2023-08-20T01:53:42;98842.66;;;24.53;60.50
66857;BME280;53766;50.280;19.160;2023-08-20T01:56:13;98839.16;;;24.53;60.41
66857;BME280;53766;50.280;19.160;2023-08-20T01:58:41;98846.41;;;24.52;60.31
66857;BME280;53766;50.280;19.160;2023-08-20T02:01:08;98842.88;;;24.52;60.29
66857;BME280;53766;50.280;19.160;2023-08-20T02:03:36;98846.41;;;24.52;60.19
66857;BME280;53766;50.280;19.160;2023-08-20T02:06:05;98855.53;;;24.51;60.42
66857;BME280;53766;50.280;19.160;2023-08-20T02:08:33;98850.16;;;24.51;60.09
66857;BME280;53766;50.280;19.160;2023-08-20T02:11:01;98855.53;;;24.51;60.17
66857;BME280;53766;50.280;19.160;2023-08-20T02:13:32;98856.59;;;24.50;60.18
66857;BME280;53766;50.280;19.160;2023-08-20T02:16:04;98855.75;;;24.50;60.05
66857;BME280;53766;50.280;19.160;2023-08-20T02:18:32;98850.38;;;24.50;60.24
66857;BME280;53766;50.280;19.160;2023-08-20T02:20:59;98849.56;;;24.49;60.03
66857;BME280;53766;50.280;19.160;2023-08-20T02:23:27;98853.31;;;24.48;59.99
66857;BME280;53766;50.280;19.160;2023-08-20T02:25:55;98851.63;;;24.47;60.27
66857;BME280;53766;50.280;19.160;2023-08-20T02:28:23;98847.94;;;24.48;59.87
66857;BME280;53766;50.280;19.160;2023-08-20T02:30:50;98846.25;;;24.47;60.03
66857;BME280;53766;50.280;19.160;2023-08-20T02:33:18;98844.63;;;24.46;60.35
66857;BME280;53766;50.280;19.160;2023-08-20T02:35:46;98850.00;;;24.46;60.13
66857;BME280;53766;50.280;19.160;2023-08-20T02:38:13;98842.16;;;24.44;60.28
66857;BME280;53766;50.280;19.160;2023-08-20T02:40:42;98834.31;;;24.43;60.01
66857;BME280;53766;50.280;19.160;2023-08-20T02:43:10;98843.22;;;24.43;60.14
66857;BME280;53766;50.280;19.160;2023-08-20T02:45:42;98845.06;;;24.43;59.83
66857;BME280;53766;50.280;19.160;2023-08-20T02:48:11;98854.22;;;24.42;59.92
66857;BME280;53766;50.280;19.160;2023-08-20T02:50:39;98854.22;;;24.42;59.88
66857;BME280;53766;50.280;19.160;2023-08-20T02:53:06;98853.41;;;24.41;60.11
66857;BME280;53766;50.280;19.160;2023-08-20T02:55:34;98854.69;;;24.39;59.96
66857;BME280;53766;50.280;19.160;2023-08-20T02:58:03;98852.81;;;24.39;60.07
66857;BME280;53766;50.280;19.160;2023-08-20T03:00:31;98854.69;;;24.39;60.27
66857;BME280;53766;50.280;19.160;2023-08-20T03:02:58;98863.81;;;24.38;60.13
66857;BME280;53766;50.280;19.160;2023-08-20T03:05:26;98863.00;;;24.37;59.94
66857;BME280;53766;50.280;19.160;2023-08-20T03:07:54;98865.69;;;24.37;59.94
66857;BME280;53766;50.280;19.160;2023-08-20T03:10:21;98860.53;;;24.36;59.76
66857;BME280;53766;50.280;19.160;2023-08-20T03:12:49;98864.28;;;24.35;59.66
66857;BME280;53766;50.280;19.160;2023-08-20T03:15:16;98865.91;;;24.36;59.49
66857;BME280;53766;50.280;19.160;2023-08-20T03:17:44;98866.41;;;24.33;59.69
66857;BME280;53766;50.280;19.160;2023-08-20T03:20:12;98871.78;;;24.33;59.74
66857;BME280;53766;50.280;19.160;2023-08-20T03:22:39;98872.81;;;24.32;59.64
66857;BME280;53766;50.280;19.160;2023-08-20T03:25:07;98879.25;;;24.31;59.66
66857;BME280;53766;50.280;19.160;2023-08-20T03:27:35;98872.22;;;24.30;59.74
66857;BME280;53766;50.280;19.160;2023-08-20T03:30:03;98884.06;;;24.29;59.41
66857;BME280;53766;50.280;19.160;2023-08-20T03:32:31;98888.63;;;24.28;59.39
66857;BME280;53766;50.280;19.160;2023-08-20T03:34:59;98883.47;;;24.27;59.58
66857;BME280;53766;50.280;19.160;2023-08-20T03:37:27;98888.03;;;24.26;59.35
66857;BME280;53766;50.280;19.160;2023-08-20T03:39:55;98883.47;;;24.27;59.22
66857;BME280;53766;50.280;19.160;2023-08-20T03:42:22;98889.28;;;24.23;59.55
66857;BME280;53766;50.280;19.160;2023-08-20T03:44:50;98888.47;;;24.23;59.47
66857;BME280;53766;50.280;19.160;2023-08-20T03:47:17;98895.75;;;24.22;59.28
66857;BME280;53766;50.280;19.160;2023-08-20T03:49:48;98891.41;;;24.21;59.56
66857;BME280;53766;50.280;19.160;2023-08-20T03:52:16;98892.25;;;24.22;59.25
66857;BME280;53766;50.280;19.160;2023-08-20T03:54:43;98895.16;;;24.20;59.21
66857;BME280;53766;50.280;19.160;2023-08-20T03:57:11;98896.81;;;24.21;59.18
66857;BME280;53766;50.280;19.160;2023-08-20T03:59:38;98887.88;;;24.21;59.30
66857;BME280;53766;50.280;19.160;2023-08-20T04:02:06;98889.75;;;24.20;59.06
66857;BME280;53766;50.280;19.160;2023-08-20T04:04:34;98895.16;;;24.20;59.28
66857;BME280;53766;50.280;19.160;2023-08-20T04:07:01;98883.56;;;24.20;59.30
66857;BME280;53766;50.280;19.160;2023-08-20T04:09:29;98890.84;;;24.19;59.38
66857;BME280;53766;50.280;19.160;2023-08-20T04:11:57;98884.38;;;24.20;59.43
66857;BME280;53766;50.280;19.160;2023-08-20T04:14:25;98884.38;;;24.20;59.55
66857;BME280;53766;50.280;19.160;2023-08-20T04:16:52;98889.75;;;24.20;59.19
66857;BME280;53766;50.280;19.160;2023-08-20T04:19:20;98882.75;;;24.19;59.41
66857;BME280;53766;50.280;19.160;2023-08-20T04:21:50;98884.38;;;24.20;59.73
66857;BME280;53766;50.280;19.160;2023-08-20T04:24:18;98884.38;;;24.20;59.40
66857;BME280;53766;50.280;19.160;2023-08-20T04:26:46;98895.16;;;24.20;59.63
66857;BME280;53766;50.280;19.160;2023-08-20T04:29:13;98889.75;;;24.20;59.43
66857;BME280;53766;50.280;19.160;2023-08-20T04:31:41;98884.38;;;24.20;59.62
66857;BME280;53766;50.280;19.160;2023-08-20T04:34:08;98876.31;;;24.20;59.62
66857;BME280;53766;50.280;19.160;2023-08-20T04:36:36;98889.75;;;24.20;59.83
66857;BME280;53766;50.280;19.160;2023-08-20T04:39:03;98891.66;;;24.20;59.78
66857;BME280;53766;50.280;19.160;2023-08-20T04:41:32;98889.75;;;24.20;59.79
66857;BME280;53766;50.280;19.160;2023-08-20T04:43:59;98886.03;;;24.21;60.12
66857;BME280;53766;50.280;19.160;2023-08-20T04:46:27;98900.53;;;24.20;59.95
66857;BME280;53766;50.280;19.160;2023-08-20T04:48:55;98897.03;;;24.20;60.10
66857;BME280;53766;50.280;19.160;2023-08-20T04:51:23;98902.19;;;24.21;60.04
66857;BME280;53766;50.280;19.160;2023-08-20T04:53:51;98905.91;;;24.20;60.40
66857;BME280;53766;50.280;19.160;2023-08-20T04:56:19;98906.72;;;24.21;60.36
66857;BME280;53766;50.280;19.160;2023-08-20T04:58:46;98903.81;;;24.22;60.39
66857;BME280;53766;50.280;19.160;2023-08-20T05:01:14;98908.13;;;24.23;60.29
66857;BME280;53766;50.280;19.160;2023-08-20T05:03:41;98904.78;;;24.28;60.33
66857;BME280;53766;50.280;19.160;2023-08-20T05:06:09;98909.78;;;24.36;60.37
66857;BME280;53766;50.280;19.160;2023-08-20T05:08:36;98914.75;;;24.39;60.28
66857;BME280;53766;50.280;19.160;2023-08-20T05:11:04;98922.56;;;24.41;60.58
66857;BME280;53766;50.280;19.160;2023-08-20T05:13:32;98920.72;;;24.41;60.58
66857;BME280;53766;50.280;19.160;2023-08-20T05:15:59;98915.56;;;24.40;60.73
66857;BME280;53766;50.280;19.160;2023-08-20T05:18:27;98918.25;;;24.40;60.78
66857;BME280;53766;50.280;19.160;2023-08-20T05:20:54;98920.94;;;24.40;61.24
66857;BME280;53766;50.280;19.160;2023-08-20T05:23:22;98913.91;;;24.39;60.96
66857;BME280;53766;50.280;19.160;2023-08-20T05:25:49;98917.66;;;24.38;61.20
66857;BME280;53766;50.280;19.160;2023-08-20T05:28:17;98917.44;;;24.39;61.15
66857;BME280;53766;50.280;19.160;2023-08-20T05:30:54;98920.94;;;24.40;61.65
66857;BME280;53766;50.280;19.160;2023-08-20T05:33:22;98929.00;;;24.40;61.70
66857;BME280;53766;50.280;19.160;2023-08-20T05:35:50;98922.56;;;24.41;61.95
66857;BME280;53766;50.280;19.160;2023-08-20T05:38:18;98920.94;;;24.40;62.00
66857;BME280;53766;50.280;19.160;2023-08-20T05:40:46;98925.50;;;24.39;62.23
66857;BME280;53766;50.280;19.160;2023-08-20T05:43:13;98925.50;;;24.39;62.01
66857;BME280;53766;50.280;19.160;2023-08-20T05:45:41;98923.84;;;24.38;62.46
66857;BME280;53766;50.280;19.160;2023-08-20T05:48:09;98923.03;;;24.38;62.43
66857;BME280;53766;50.280;19.160;2023-08-20T05:50:36;98921.41;;;24.37;62.87
66857;BME280;53766;50.280;19.160;2023-08-20T05:53:03;98925.13;;;24.36;62.83
66857;BME280;53766;50.280;19.160;2023-08-20T05:55:31;98926.78;;;24.37;62.96
66857;BME280;53766;50.280;19.160;2023-08-20T05:57:59;98928.41;;;24.38;63.04
66857;BME280;53766;50.280;19.160;2023-08-20T06:00:26;98923.41;;;24.41;63.16
66857;BME280;53766;50.280;19.160;2023-08-20T06:02:54;98936.63;;;24.43;62.78
66857;BME280;53766;50.280;19.160;2023-08-20T06:05:22;98931.81;;;24.45;62.69
66857;BME280;53766;50.280;19.160;2023-08-20T06:07:49;98937.78;;;24.47;62.91
66857;BME280;53766;50.280;19.160;2023-08-20T06:10:17;98934.09;;;24.48;62.84
66857;BME280;53766;50.280;19.160;2023-08-20T06:12:44;98941.09;;;24.49;62.61
66857;BME280;53766;50.280;19.160;2023-08-20T06:15:12;98940.28;;;24.49;62.88
66857;BME280;53766;50.280;19.160;2023-08-20T06:17:39;98942.75;;;24.50;62.23
66857;BME280;53766;50.280;19.160;2023-08-20T06:20:07;98941.91;;;24.50;62.61
66857;BME280;53766;50.280;19.160;2023-08-20T06:22:36;98934.09;;;24.48;62.82
66857;BME280;53766;50.280;19.160;2023-08-20T06:25:04;98941.09;;;24.49;62.94
66857;BME280;53766;50.280;19.160;2023-08-20T06:27:32;98935.50;;;24.51;62.97
66857;BME280;53766;50.280;19.160;2023-08-20T06:30:02;98942.75;;;24.50;63.39
66857;BME280;53766;50.280;19.160;2023-08-20T06:32:30;98937.38;;;24.50;62.98
66857;BME280;53766;50.280;19.160;2023-08-20T06:34:57;98940.66;;;24.52;62.94
66857;BME280;53766;50.280;19.160;2023-08-20T06:37:25;98941.47;;;24.53;63.07
66857;BME280;53766;50.280;19.160;2023-08-20T06:39:52;98939.59;;;24.53;62.87
66857;BME280;53766;50.280;19.160;2023-08-20T06:42:20;98943.94;;;24.54;63.00
66857;BME280;53766;50.280;19.160;2023-08-20T06:44:48;98934.78;;;24.55;63.67
66857;BME280;53766;50.280;19.160;2023-08-20T06:47:15;98943.47;;;24.57;62.98
66857;BME280;53766;50.280;19.160;2023-08-20T06:49:43;98947.22;;;24.56;63.25
66857;BME280;53766;50.280;19.160;2023-08-20T06:52:10;98954.25;;;24.57;63.27
66857;BME280;53766;50.280;19.160;2023-08-20T06:54:38;98949.66;;;24.58;63.73
66857;BME280;53766;50.280;19.160;2023-08-20T06:57:05;98947.78;;;24.58;63.22
66857;BME280;53766;50.280;19.160;2023-08-20T06:59:35;98950.47;;;24.58;63.37
66857;BME280;53766;50.280;19.160;2023-08-20T07:02:02;98943.00;;;24.60;63.82
66857;BME280;53766;50.280;19.160;2023-08-20T07:04:30;98944.66;;;24.61;63.78
66857;BME280;53766;50.280;19.160;2023-08-20T07:06:58;98950.63;;;24.63;63.56
66857;BME280;53766;50.280;19.160;2023-08-20T07:09:26;98945.22;;;24.63;63.31
66857;BME280;53766;50.280;19.160;2023-08-20T07:11:53;98944.16;;;24.64;63.10
66857;BME280;53766;50.280;19.160;2023-08-20T07:14:21;98954.50;;;24.68;62.85
66857;BME280;53766;50.280;19.160;2023-08-20T07:16:48;98949.91;;;24.68;62.92
66857;BME280;53766;50.280;19.160;2023-08-20T07:19:16;98956.94;;;24.69;62.67
66857;BME280;53766;50.280;19.160;2023-08-20T07:21:43;98947.22;;;24.68;62.90
66857;BME280;53766;50.280;19.160;2023-08-20T07:24:11;98950.28;;;24.72;62.52
66857;BME280;53766;50.280;19.160;2023-08-20T07:26:39;98951.31;;;24.71;63.46
66857;BME280;53766;50.280;19.160;2023-08-20T07:29:06;98948.63;;;24.71;63.30
66857;BME280;53766;50.280;19.160;2023-08-20T07:31:34;98951.91;;;24.73;63.89
66857;BME280;53766;50.280;19.160;2023-08-20T07:34:02;98950.88;;;24.74;63.61
66857;BME280;53766;50.280;19.160;2023-08-20T07:36:32;98961.66;;;24.74;64.28
66857;BME280;53766;50.280;19.160;2023-08-20T07:39:00;98950.28;;;24.72;63.59
66857;BME280;53766;50.280;19.160;2023-08-20T07:41:29;98946.53;;;24.73;63.50
66857;BME280;53766;50.280;19.160;2023-08-20T07:43:57;98951.91;;;24.73;64.13
66857;BME280;53766;50.280;19.160;2023-08-20T07:46:25;98948.19;;;24.74;63.63
66857;BME280;53766;50.280;19.160;2023-08-20T07:48:53;98949.81;;;24.75;64.16
66857;BME280;53766;50.280;19.160;2023-08-20T07:51:21;98950.63;;;24.75;63.78
66857;BME280;53766;50.280;19.160;2023-08-20T07:53:49;98956.81;;;24.76;63.40
66857;BME280;53766;50.280;19.160;2023-08-20T07:56:16;98955.56;;;24.78;63.53
66857;BME280;53766;50.280;19.160;2023-08-20T07:58:43;98955.56;;;24.78;63.31
66857;BME280;53766;50.280;19.160;2023-08-20T08:01:11;98959.06;;;24.79;63.59
66857;BME280;53766;50.280;19.160;2023-08-20T08:03:41;98962.34;;;24.81;63.49
66857;BME280;53766;50.280;19.160;2023-08-20T08:06:08;98955.91;;;24.82;63.77
66857;BME280;53766;50.280;19.160;2023-08-20T08:08:37;98953.78;;;24.84;63.69
66857;BME280;53766;50.280;19.160;2023-08-20T08:11:05;98960.84;;;24.85;63.49
66857;BME280;53766;50.280;19.160;2023-08-20T08:13:33;98965.75;;;24.88;63.44
66857;BME280;53766;50.280;19.160;2023-08-20T08:16:00;98961.75;;;24.91;63.39
66857;BME280;53766;50.280;19.160;2023-08-20T08:18:28;98954.50;;;24.91;64.05
66857;BME280;53766;50.280;19.160;2023-08-20T08:20:55;98957.75;;;24.93;63.60
66857;BME280;53766;50.280;19.160;2023-08-20T08:23:23;98962.13;;;24.94;63.74
66857;BME280;53766;50.280;19.160;2023-08-20T08:25:50;98962.69;;;24.96;63.72
66857;BME280;53766;50.280;19.160;2023-08-20T08:28:18;98959.78;;;24.98;63.93
66857;BME280;53766;50.280;19.160;2023-08-20T08:30:45;98969.28;;;25.00;63.46
66857;BME280;53766;50.280;19.160;2023-08-20T08:33:13;98962.94;;;25.07;63.49
66857;BME280;53766;50.280;19.160;2023-08-20T08:35:40;98958.97;;;25.09;62.98
66857;BME280;53766;50.280;19.160;2023-08-20T08:38:08;98960.34;;;25.12;62.62
66857;BME280;53766;50.280;19.160;2023-08-20T08:40:35;98956.59;;;25.13;62.47
66857;BME280;53766;50.280;19.160;2023-08-20T08:43:04;98958.25;;;25.14;62.40
66857;BME280;53766;50.280;19.160;2023-08-20T08:45:33;98960.47;;;25.17;61.89
66857;BME280;53766;50.280;19.160;2023-08-20T08:48:02;98952.13;;;25.18;61.38
66857;BME280;53766;50.280;19.160;2023-08-20T08:50:31;98952.38;;;25.17;61.83
66857;BME280;53766;50.280;19.160;2023-08-20T08:52:59;98952.38;;;25.17;62.42
66857;BME280;53766;50.280;19.160;2023-08-20T08:55:28;98964.00;;;25.17;62.78
66857;BME280;53766;50.280;19.160;2023-08-20T08:57:55;98952.97;;;25.19;62.17
66857;BME280;53766;50.280;19.160;2023-08-20T09:00:23;98959.41;;;25.18;62.37
66857;BME280;53766;50.280;19.160;2023-08-20T09:02:50;98951.94;;;25.20;63.06
66857;BME280;53766;50.280;19.160;2023-08-20T09:05:18;98954.63;;;25.20;62.97
66857;BME280;53766;50.280;19.160;2023-08-20T09:07:45;98966.00;;;25.22;62.61
66857;BME280;53766;50.280;19.160;2023-08-20T09:10:16;98962.13;;;25.30;62.15
66857;BME280;53766;50.280;19.160;2023-08-20T09:12:47;98964.22;;;25.39;61.01
66857;BME280;53766;50.280;19.160;2023-08-20T09:15:15;98958.94;;;25.44;60.72
66857;BME280;53766;50.280;19.160;2023-08-20T09:17:42;98966.53;;;25.48;60.59
66857;BME280;53766;50.280;19.160;2023-08-20T09:20:10;98960.19;;;25.54;60.30
66857;BME280;53766;50.280;19.160;2023-08-20T09:22:38;98967.97;;;25.50;60.86
66857;BME280;53766;50.280;19.160;2023-08-20T09:25:06;98974.41;;;25.49;61.02
66857;BME280;53766;50.280;19.160;2023-08-20T09:27:39;98968.53;;;25.52;59.83
66857;BME280;53766;50.280;19.160;2023-08-20T09:30:10;98964.53;;;25.55;59.48
66857;BME280;53766;50.280;19.160;2023-08-20T09:32:45;98969.44;;;25.58;59.32
66857;BME280;53766;50.280;19.160;2023-08-20T09:35:18;98967.34;;;25.60;59.83
66857;BME280;53766;50.280;19.160;2023-08-20T09:37:46;98971.44;;;25.62;59.41
66857;BME280;53766;50.280;19.160;2023-08-20T09:40:14;98973.91;;;25.64;58.52
66857;BME280;53766;50.280;19.160;2023-08-20T09:42:42;98975.53;;;25.65;57.94
66857;BME280;53766;50.280;19.160;2023-08-20T09:45:10;98973.53;;;25.60;58.64
66857;BME280;53766;50.280;19.160;2023-08-20T09:47:40;98969.81;;;25.61;58.13
66857;BME280;53766;50.280;19.160;2023-08-20T09:50:10;98971.09;;;25.59;58.62
66857;BME280;53766;50.280;19.160;2023-08-20T09:52:40;98965.91;;;25.69;57.71
66857;BME280;53766;50.280;19.160;2023-08-20T09:55:14;98959.91;;;25.79;56.74
66857;BME280;53766;50.280;19.160;2023-08-20T09:57:43;98964.56;;;25.83;56.45
66857;BME280;53766;50.280;19.160;2023-08-20T10:00:13;98960.47;;;25.81;56.96
66857;BME280;53766;50.280;19.160;2023-08-20T10:02:42;98957.06;;;25.85;56.51
66857;BME280;53766;50.280;19.160;2023-08-20T10:05:11;98951.56;;;25.92;56.06
66857;BME280;53766;50.280;19.160;2023-08-20T10:07:42;98950.31;;;26.00;56.33
66857;BME280;53766;50.280;19.160;2023-08-20T10:10:10;98950.81;;;25.97;56.58
66857;BME280;53766;50.280;19.160;2023-08-20T10:12:40;98945.63;;;26.07;56.07
66857;BME280;53766;50.280;19.160;2023-08-20T10:15:10;98950.38;;;26.17;55.98
66857;BME280;53766;50.280;19.160;2023-08-20T10:17:38;98946.94;;;26.21;55.46
66857;BME280;53766;50.280;19.160;2023-08-20T10:20:08;98953.88;;;26.17;55.50
66857;BME280;53766;50.280;19.160;2023-08-20T10:22:38;98949.06;;;26.19;55.28
66857;BME280;53766;50.280;19.160;2023-08-20T10:27:36;98944.16;;;26.16;54.99
66857;BME280;53766;50.280;19.160;2023-08-20T10:30:16;98953.50;;;26.25;54.89
66857;BME280;53766;50.280;19.160;2023-08-20T10:32:53;98945.66;;;26.24;54.60
66857;BME280;53766;50.280;19.160;2023-08-20T10:35:46;98942.22;;;26.29;54.43
66857;BME280;53766;50.280;19.160;2023-08-20T10:38:16;98940.91;;;26.31;54.09
66857;BME280;53766;50.280;19.160;2023-08-20T10:40:53;98939.91;;;26.20;55.25
66857;BME280;53766;50.280;19.160;2023-08-20T10:43:35;98931.72;;;26.15;55.43
66857;BME280;53766;50.280;19.160;2023-08-20T10:46:14;98939.09;;;26.20;54.39
66857;BME280;53766;50.280;19.160;2023-08-20T10:48:56;98938.59;;;26.23;54.26
66857;BME280;53766;50.280;19.160;2023-08-20T10:51:26;98937.78;;;26.22;54.39
66857;BME280;53766;50.280;19.160;2023-08-20T10:59:22;98930.19;;;26.36;53.36
66857;BME280;53766;50.280;19.160;2023-08-20T11:01:51;98932.88;;;26.36;53.41
66857;BME280;53766;50.280;19.160;2023-08-20T11:04:21;98932.00;;;26.31;54.38
66857;BME280;53766;50.280;19.160;2023-08-20T11:06:52;98932.31;;;26.34;54.38
66857;BME280;53766;50.280;19.160;2023-08-20T11:09:22;98932.25;;;26.46;54.16
66857;BME280;53766;50.280;19.160;2023-08-20T11:11:50;98931.00;;;26.54;53.54
66857;BME280;53766;50.280;19.160;2023-08-20T11:14:19;98929.13;;;26.54;53.22
66857;BME280;53766;50.280;19.160;2023-08-20T11:16:48;98926.84;;;26.46;54.37
66857;BME280;53766;50.280;19.160;2023-08-20T11:19:20;98923.06;;;26.47;53.38
66857;BME280;53766;50.280;19.160;2023-08-20T11:21:49;98913.34;;;26.46;53.77
66857;BME280;53766;50.280;19.160;2023-08-20T11:24:16;98915.75;;;26.59;52.22
66857;BME280;53766;50.280;19.160;2023-08-20T11:26:45;98911.56;;;26.68;51.04
66857;BME280;53766;50.280;19.160;2023-08-20T11:29:14;98918.03;;;26.67;51.43
66857;BME280;53766;50.280;19.160;2023-08-20T11:31:50;98919.81;;;26.79;51.62
66857;BME280;53766;50.280;19.160;2023-08-20T11:34:18;98921.28;;;26.86;51.48
66857;BME280;53766;50.280;19.160;2023-08-20T11:36:46;98918.28;;;26.83;52.23
66857;BME280;53766;50.280;19.160;2023-08-20T11:39:15;98913.09;;;26.81;52.15
66857;BME280;53766;50.280;19.160;2023-08-20T11:41:43;98915.41;;;26.73;52.99
66857;BME280;53766;50.280;19.160;2023-08-20T11:44:19;98916.28;;;26.78;51.66
66857;BME280;53766;50.280;19.160;2023-08-20T11:46:48;98910.75;;;26.85;51.40
66857;BME280;53766;50.280;19.160;2023-08-20T11:49:16;98918.28;;;26.83;51.18
66857;BME280;53766;50.280;19.160;2023-08-20T11:51:48;98907.53;;;26.88;51.20
66857;BME280;53766;50.280;19.160;2023-08-20T11:54:18;98911.59;;;26.91;51.88
66857;BME280;53766;50.280;19.160;2023-08-20T11:56:50;98914.88;;;26.93;52.15
66857;BME280;53766;50.280;19.160;2023-08-20T11:59:21;98903.03;;;26.94;52.56
66857;BME280;53766;50.280;19.160;2023-08-20T12:01:56;98907.16;;;27.01;51.59
66857;BME280;53766;50.280;19.160;2023-08-20T12:04:23;98908.50;;;26.99;51.74
66857;BME280;53766;50.280;19.160;2023-08-20T12:07:24;98899.00;;;26.96;51.09
66857;BME280;53766;50.280;19.160;2023-08-20T12:09:51;98907.00;;;26.91;51.06
66857;BME280;53766;50.280;19.160;2023-08-20T12:12:19;98896.19;;;26.91;51.09
66857;BME280;53766;50.280;19.160;2023-08-20T12:14:49;98898.66;;;26.93;51.25
66857;BME280;53766;50.280;19.160;2023-08-20T12:17:18;98893.66;;;27.01;50.23
66857;BME280;53766;50.280;19.160;2023-08-20T12:19:45;98898.41;;;27.11;50.40
66857;BME280;53766;50.280;19.160;2023-08-20T12:22:13;98899.19;;;27.12;49.82
66857;BME280;53766;50.280;19.160;2023-08-20T12:24:41;98897.63;;;27.16;49.79
66857;BME280;53766;50.280;19.160;2023-08-20T12:27:08;98902.69;;;27.29;50.23
66857;BME280;53766;50.280;19.160;2023-08-20T12:29:35;98902.00;;;27.39;49.42
66857;BME280;53766;50.280;19.160;2023-08-20T12:32:03;98892.63;;;27.46;48.67
66857;BME280;53766;50.280;19.160;2023-08-20T12:34:32;98894.91;;;27.55;47.96
66857;BME280;53766;50.280;19.160;2023-08-20T12:37:00;98894.25;;;27.47;47.52
66857;BME280;53766;50.280;19.160;2023-08-20T12:39:27;98896.59;;;27.39;48.40
66857;BME280;53766;50.280;19.160;2023-08-20T12:41:55;98893.13;;;27.43;47.57
66857;BME280;53766;50.280;19.160;2023-08-20T12:44:22;98896.56;;;27.61;46.81
66857;BME280;53766;50.280;19.160;2023-08-20T12:46:50;98899.66;;;27.47;46.77
66857;BME280;53766;50.280;19.160;2023-08-20T12:49:18;98887.66;;;27.38;46.46
66857;BME280;53766;50.280;19.160;2023-08-20T12:51:45;98892.38;;;27.26;48.12
66857;BME280;53766;50.280;19.160;2023-08-20T12:54:13;98888.63;;;27.27;47.82
66857;BME280;53766;50.280;19.160;2023-08-20T12:56:40;98885.16;;;27.32;48.31
66857;BME280;53766;50.280;19.160;2023-08-20T12:59:08;98886.56;;;27.39;48.24
66857;BME280;53766;50.280;19.160;2023-08-20T13:01:35;98888.56;;;27.44;48.59
66857;BME280;53766;50.280;19.160;2023-08-20T13:04:03;98878.53;;;27.44;48.39
66857;BME280;53766;50.280;19.160;2023-08-20T13:06:31;98873.31;;;27.60;47.78
66857;BME280;53766;50.280;19.160;2023-08-20T13:08:59;98876.81;;;27.60;46.97